KSTL/STL METAR and TAF weather

Enter ICAO airport designator
Example: see airport list
Station Type Date Time Source
KSTL METAR 2016/12/08 06:51 UTC NOAA

KSTL 080651Z 30010KT 10SM FEW025 M03/M11 A3038 RMK AO2 SLP295 T10331111


Station Type Date Time Source
KSTL Decoded METAR 2016/12/08 06:51 UTC NOAA

LAMBERT-ST LOUIS INTERNATIONAL AIRPORT , MO, United States (KSTL) 38-45N 90-22W 171M
Dec 08, 2016 - 01:51 AM EST / 2016.12.08 0651 UTC
Wind: from the WNW (300 degrees) at 12 MPH (10 KT):0
Visibility: 10 mile(s):0
Sky conditions: mostly clear
Temperature: 26.1 F (-3.3 C)
Windchill: 15 F (-9 C):1
Dew Point: 12.0 F (-11.1 C)
Relative Humidity: 54%
Pressure (altimeter): 30.38 in. Hg (1028 hPa)
ob: KSTL 080651Z 30010KT 10SM FEW025 M03/M11 A3038 RMK AO2 SLP295 T10331111
cycle: 7